Seabulk Challenge — KNJL — position and weather

sailwx.info

Track history (hours):
 
Tides and Currents Weather Stations Pressure Air Temp Water Temp Dewpoint Dewpoint Depression Visibility Wind Speed Wind Dir Waves Ship Positions

Seabulk Challenge

Owner: Seabulk Tankers, Inc., Fort Lauderdale, FL. More information available from US FCC via Universal Licensing System and Coast Guard Vessel Documentation Center.

Last reported at 2014-Nov-25 19:20 UTC. Time now 2014-Nov-29 05:11 UTC.
Position N 25°03' W 080°12'.

Length 192 m; draft 10.6 m.

Type: Tanker. MMSI: 303104000.

Date/timePositionNaut miles runAvg speedWind from/ knotsBaromVisibWave heightAir tempDewpointWater temp
2014-Nov-25 19:20N 25°03' W 080°12'1111.7
2014-Nov-25 18:22N 25°13' W 080°06'1313.3
2014-Nov-25 17:24N 25°25' W 080°01'1113.1
2014-Nov-25 16:33N 25°36' W 080°01'1312.5
2014-Nov-25 15:33N 25°49' W 079°60'1211.8
2014-Nov-25 14:33N 26°00' W 079°59'1111.4
2014-Nov-25 13:33N 26°12' W 079°58'1111.1
2014-Nov-25 12:33N 26°23' W 079°58'1110.9
2014-Nov-25 11:33N 26°34' W 079°57'1110.5
2014-Nov-25 10:33N 26°44' W 079°57'1010.4
2014-Nov-25 09:33N 26°55' W 079°56'10 9.6
2014-Nov-25 08:33N 27°04' W 079°58'  
2014-Nov-22 16:33N 39°26' W 073°56'1514.7
2014-Nov-22 15:33N 39°41' W 073°52'1514.7
2014-Nov-22 14:32N 39°55' W 073°50'1614.5
2014-Nov-22 13:28N 40°11' W 073°49'9 9.8
2014-Nov-22 12:33N 40°20' W 073°49'10 9.7
2014-Nov-22 11:33N 40°28' W 073°57'1111.2
2014-Nov-22 10:33N 40°30' W 074°11'4 3.5
2014-Nov-22 09:26N 40°34' W 074°13'4 0.2
2014-Nov-21 12:17N 40°38' W 074°12'2 2.6
2014-Nov-21 11:33N 40°39' W 074°10'6 5.9
2014-Nov-21 10:33N 40°37' W 074°03'1211.6
2014-Nov-21 09:34N 40°28' W 073°52'7 1.4
2014-Nov-21 04:28N 40°30' W 073°43'0 0.0
2014-Nov-21 03:32N 40°30' W 073°43'0 0.0
2014-Nov-21 02:16N 40°30' W 073°43'0 0.0
2014-Nov-21 01:28N 40°30' W 073°43'4 4.6
2014-Nov-21 00:31N 40°26' W 073°45'1110.2
2014-Nov-20 23:26N 40°15' W 073°46'1212.7
2014-Nov-20 22:30N 40°03' W 073°44'1714.4
2014-Nov-20 21:17N 39°46' W 073°41'  
2014-Nov-18 14:33N 26°59' W 079°44'3517.6
2014-Nov-18 12:33N 26°24' W 079°46'1817.6
2014-Nov-18 11:33N 26°06' W 079°48'1817.7
2014-Nov-18 10:33N 25°49' W 079°51'1817.9
2014-Nov-18 09:33N 25°31' W 079°55'59311.8
2014-Nov-16 07:20N 29°54' W 089°54'8 9.7
2014-Nov-16 06:30N 29°56' W 090°04'4010.0
2014-Nov-16 02:29N 29°60' W 090°50'  
Track history (hours):
 
Tides and Currents Weather Stations Pressure Air Temp Water Temp Dewpoint Dewpoint Depression Visibility Wind Speed Wind Dir Waves Ship Positions

Seabulk Challenge

Owner: Seabulk Tankers, Inc., Fort Lauderdale, FL. More information available from US FCC via Universal Licensing System and Coast Guard Vessel Documentation Center.

Last reported at 2014-Nov-25 19:20 UTC. Time now 2014-Nov-29 05:11 UTC.
Position N 25°03' W 080°12'.

Length 192 m; draft 10.6 m.

Type: Tanker. MMSI: 303104000.

Date/timePositionNaut miles runAvg speedWind from/ knotsBaromVisibWave heightAir tempDewpointWater temp
2014-Nov-25 19:20N 25°03' W 080°12'1111.7
2014-Nov-25 18:22N 25°13' W 080°06'1313.3
2014-Nov-25 17:24N 25°25' W 080°01'1113.1
2014-Nov-25 16:33N 25°36' W 080°01'1312.5
2014-Nov-25 15:33N 25°49' W 079°60'1211.8
2014-Nov-25 14:33N 26°00' W 079°59'1111.4
2014-Nov-25 13:33N 26°12' W 079°58'1111.1
2014-Nov-25 12:33N 26°23' W 079°58'1110.9
2014-Nov-25 11:33N 26°34' W 079°57'1110.5
2014-Nov-25 10:33N 26°44' W 079°57'1010.4
2014-Nov-25 09:33N 26°55' W 079°56'10 9.6
2014-Nov-25 08:33N 27°04' W 079°58'  
2014-Nov-22 16:33N 39°26' W 073°56'1514.7
2014-Nov-22 15:33N 39°41' W 073°52'1514.7
2014-Nov-22 14:32N 39°55' W 073°50'1614.5
2014-Nov-22 13:28N 40°11' W 073°49'9 9.8
2014-Nov-22 12:33N 40°20' W 073°49'10 9.7
2014-Nov-22 11:33N 40°28' W 073°57'1111.2
2014-Nov-22 10:33N 40°30' W 074°11'4 3.5
2014-Nov-22 09:26N 40°34' W 074°13'4 0.2
2014-Nov-21 12:17N 40°38' W 074°12'2 2.6
2014-Nov-21 11:33N 40°39' W 074°10'6 5.9
2014-Nov-21 10:33N 40°37' W 074°03'1211.6
2014-Nov-21 09:34N 40°28' W 073°52'7 1.4
2014-Nov-21 04:28N 40°30' W 073°43'0 0.0
2014-Nov-21 03:32N 40°30' W 073°43'0 0.0
2014-Nov-21 02:16N 40°30' W 073°43'0 0.0
2014-Nov-21 01:28N 40°30' W 073°43'4 4.6
2014-Nov-21 00:31N 40°26' W 073°45'1110.2
2014-Nov-20 23:26N 40°15' W 073°46'1212.7
2014-Nov-20 22:30N 40°03' W 073°44'1714.4
2014-Nov-20 21:17N 39°46' W 073°41'  
2014-Nov-18 14:33N 26°59' W 079°44'3517.6
2014-Nov-18 12:33N 26°24' W 079°46'1817.6
2014-Nov-18 11:33N 26°06' W 079°48'1817.7
2014-Nov-18 10:33N 25°49' W 079°51'1817.9
2014-Nov-18 09:33N 25°31' W 079°55'59311.8
2014-Nov-16 07:20N 29°54' W 089°54'8 9.7
2014-Nov-16 06:30N 29°56' W 090°04'4010.0
2014-Nov-16 02:29N 29°60' W 090°50'  

Dump ship's entire track history